Terminal Aerodrome Forecast
Issued by NWS

Home | Current Version | Previous Version | Text Only | Print | Product List | Glossary On
Versions: 1 2 3 4 5 6 7 8 9 10 11 12 13 14
000
FTUS43 KFGF 251100
TAFTVF
TAF
KTVF 251132Z 2512/2612 10010KT P6SM BKN035
      TEMPO 2512/2514 BKN025
     FM252000 11013KT P6SM OVC050
     FM260100 10005KT P6SM SCT070
      AMD LTD TO CLD VIS AND WIND=

USA.gov is the U.S. government's official web portal to all federal, state and local government web resources and services.